createdAt,value
2023-04-02T00:00:10.532Z,10.70
2023-04-02T00:03:03.976Z,9.90
2023-04-02T00:05:50.208Z,8.60
2023-04-02T00:08:38.968Z,8.90
2023-04-02T00:11:09.267Z,9.70
2023-04-02T00:13:41.348Z,10.20
2023-04-02T00:16:14.537Z,8.50
2023-04-02T00:18:47.128Z,11.20
2023-04-02T00:21:22.960Z,11.90
2023-04-02T00:23:53.734Z,10.20
2023-04-02T00:26:24.606Z,11.30
2023-04-02T00:28:52.983Z,11.60
2023-04-02T00:31:21.458Z,11.10
2023-04-02T00:33:50.476Z,11.40
2023-04-02T00:36:22.177Z,9.40
2023-04-02T00:38:50.952Z,9.50
2023-04-02T00:41:29.911Z,10.10
2023-04-02T00:43:59.889Z,10.80
2023-04-02T00:46:46.862Z,11.40
2023-04-02T00:49:39.384Z,9.40
2023-04-02T00:52:16.685Z,11.10
2023-04-02T00:54:59.220Z,11.50
2023-04-02T00:57:28.283Z,8.90
2023-04-02T01:00:20.446Z,7.90
2023-04-02T01:03:16.819Z,9.10
2023-04-02T01:06:02.816Z,10.40
2023-04-02T01:08:39.916Z,11.20
2023-04-02T01:11:55.800Z,10.90
2023-04-02T01:15:05.475Z,9.00
2023-04-02T01:17:49.132Z,9.50
2023-04-02T01:20:42.274Z,9.90
2023-04-02T01:23:27.630Z,9.50
2023-04-02T01:26:34.288Z,9.10
2023-04-02T01:29:11.499Z,9.10
2023-04-02T01:31:41.269Z,9.10
2023-04-02T01:34:12.176Z,8.60
2023-04-02T01:36:49.552Z,11.00
2023-04-02T01:39:45.527Z,8.50
2023-04-02T01:42:24.270Z,8.30
2023-04-02T01:44:54.395Z,7.90
2023-04-02T01:47:27.410Z,10.60
2023-04-02T01:50:02.795Z,9.10
2023-04-02T01:52:39.180Z,9.30
2023-04-02T01:55:15.279Z,7.40
2023-04-02T01:57:47.527Z,9.80
2023-04-02T02:00:17.818Z,9.10
2023-04-02T02:02:49.889Z,7.10
2023-04-02T02:05:23.194Z,7.90
2023-04-02T02:07:52.959Z,7.30
2023-04-02T02:10:34.212Z,9.00
2023-04-02T02:13:03.872Z,10.70
2023-04-02T02:15:33.744Z,8.30
2023-04-02T02:18:06.784Z,8.40
2023-04-02T02:20:36.277Z,9.10
2023-04-02T02:23:04.935Z,8.20
2023-04-02T02:25:35.259Z,9.40
2023-04-02T02:28:06.866Z,10.20
2023-04-02T02:30:53.135Z,8.50
2023-04-02T02:33:31.757Z,7.70
2023-04-02T02:36:10.549Z,9.80
2023-04-02T02:39:05.888Z,7.80
2023-04-02T02:41:43.933Z,9.00
2023-04-02T02:44:20.741Z,11.70
2023-04-02T02:46:57.039Z,9.10
2023-04-02T02:49:39.433Z,7.40
2023-04-02T02:52:21.674Z,7.40
2023-04-02T02:55:09.041Z,8.20
2023-04-02T02:58:04.599Z,7.20
2023-04-02T03:00:37.709Z,8.50
2023-04-02T03:03:09.833Z,10.90
2023-04-02T03:05:40.447Z,7.90
2023-04-02T03:08:21.069Z,9.70
2023-04-02T03:10:57.260Z,9.30
2023-04-02T03:13:35.752Z,12.40
2023-04-02T03:16:22.791Z,9.40
2023-04-02T03:19:20.573Z,8.10
2023-04-02T03:22:03.046Z,8.90
2023-04-02T03:24:45.676Z,8.00
2023-04-02T03:27:19.663Z,9.10
2023-04-02T03:30:30.033Z,7.40
2023-04-02T03:33:04.279Z,8.50
2023-04-02T03:35:42.464Z,7.10
2023-04-02T03:38:21.098Z,7.20
2023-04-02T03:41:05.109Z,5.60
2023-04-02T03:43:42.752Z,4.70
2023-04-02T03:46:22.660Z,6.10
2023-04-02T03:48:56.143Z,4.70
2023-04-02T03:51:33.481Z,4.80
2023-04-02T03:54:02.544Z,4.40
2023-04-02T03:56:39.849Z,4.40
2023-04-02T03:59:21.749Z,4.80
2023-04-02T04:02:15.954Z,4.10
2023-04-02T04:04:46.549Z,5.00
2023-04-02T04:07:32.653Z,4.00
2023-04-02T04:12:37.035Z,3.40
2023-04-02T04:15:25.072Z,6.20
2023-04-02T04:18:34.933Z,2.80
2023-04-02T04:21:37.130Z,3.40
2023-04-02T04:24:28.535Z,2.60
2023-04-02T04:27:09.708Z,3.60
2023-04-02T04:30:06.245Z,2.40
2023-04-02T04:32:42.823Z,2.80
2023-04-02T04:35:23.873Z,2.70
2023-04-02T04:38:00.548Z,4.00
2023-04-02T04:43:18.661Z,4.10
2023-04-02T04:46:03.744Z,9.20
2023-04-02T04:48:49.712Z,3.00
2023-04-02T04:51:53.764Z,3.90
2023-04-02T04:54:28.735Z,4.00
2023-04-02T04:57:03.216Z,3.30
2023-04-02T04:59:40.423Z,1.70
2023-04-02T05:02:18.770Z,3.50
2023-04-02T05:04:52.281Z,2.90
2023-04-02T05:07:32.056Z,4.20
2023-04-02T05:10:17.417Z,4.20
2023-04-02T05:12:59.221Z,4.30
2023-04-02T05:15:32.865Z,3.70
2023-04-02T05:18:23.364Z,2.90
2023-04-02T05:21:14.561Z,4.10
2023-04-02T05:24:02.668Z,4.80
2023-04-02T05:26:37.612Z,5.00
2023-04-02T05:29:25.339Z,1.90
2023-04-02T05:32:06.953Z,2.40
2023-04-02T05:34:40.935Z,4.30
2023-04-02T05:37:23.305Z,2.60
2023-04-02T05:39:58.024Z,3.10
2023-04-02T05:42:37.047Z,3.30
2023-04-02T05:45:20.679Z,3.50
2023-04-02T05:47:52.231Z,4.10
2023-04-02T05:50:30.893Z,5.20
2023-04-02T05:53:25.746Z,2.30
2023-04-02T05:56:03.196Z,3.20
2023-04-02T05:58:39.682Z,5.20
2023-04-02T06:01:25.339Z,5.00
2023-04-02T06:04:13.528Z,6.70
2023-04-02T06:06:50.668Z,4.80
2023-04-02T06:09:22.547Z,5.80
2023-04-02T06:12:20.553Z,4.30
2023-04-02T06:14:48.837Z,5.80
2023-04-02T06:17:20.040Z,4.30
2023-04-02T06:19:49.468Z,2.80
2023-04-02T06:22:32.603Z,6.50
2023-04-02T06:25:13.716Z,5.40
2023-04-02T06:27:45.644Z,4.70
2023-04-02T06:30:19.438Z,3.60
2023-04-02T06:32:50.582Z,3.10
2023-04-02T06:35:19.803Z,5.30
2023-04-02T06:37:59.299Z,4.50
2023-04-02T06:40:41.324Z,4.90
2023-04-02T06:43:33.669Z,4.50
2023-04-02T06:46:23.152Z,3.40
2023-04-02T06:49:13.349Z,4.60
2023-04-02T06:51:44.629Z,6.40
2023-04-02T06:54:18.361Z,6.00
2023-04-02T06:56:52.878Z,5.30
2023-04-02T06:59:31.985Z,4.40
2023-04-02T07:02:04.574Z,5.30
2023-04-02T07:04:33.351Z,4.10
2023-04-02T07:07:01.391Z,3.00
2023-04-02T07:09:33.210Z,4.00
2023-04-02T07:12:11.316Z,3.70
2023-04-02T07:14:39.413Z,5.80
2023-04-02T07:17:07.674Z,7.90
2023-04-02T07:19:35.679Z,7.20
2023-04-02T07:22:03.614Z,4.80
2023-04-02T07:24:36.868Z,4.10
2023-04-02T07:27:04.753Z,4.30
2023-04-02T07:29:32.747Z,5.80
2023-04-02T07:32:00.833Z,5.60
2023-04-02T07:34:30.170Z,5.90
2023-04-02T07:36:58.089Z,6.30
2023-04-02T07:39:26.038Z,4.70
2023-04-02T07:41:56.826Z,6.10
2023-04-02T07:44:24.894Z,6.40
2023-04-02T07:46:52.881Z,7.60
2023-04-02T07:49:21.464Z,6.40
2023-04-02T07:51:51.600Z,9.10
2023-04-02T07:54:19.517Z,7.50
2023-04-02T07:56:47.509Z,9.10
2023-04-02T07:59:15.491Z,7.10
2023-04-02T08:01:43.488Z,9.10
2023-04-02T08:04:21.434Z,6.50
2023-04-02T08:06:50.454Z,7.00
2023-04-02T08:09:18.587Z,6.20
2023-04-02T08:11:46.710Z,5.30
2023-04-02T08:14:15.152Z,6.90
2023-04-02T08:16:56.312Z,6.90
2023-04-02T08:19:24.680Z,5.90
2023-04-02T08:21:53.896Z,8.80
2023-04-02T08:24:22.308Z,6.70
2023-04-02T08:26:51.644Z,9.90
2023-04-02T08:29:21.060Z,12.40
2023-04-02T08:31:49.167Z,12.10
2023-04-02T08:34:17.407Z,7.60
2023-04-02T08:36:45.960Z,11.40
2023-04-02T08:39:14.825Z,6.60
2023-04-02T08:42:09.018Z,6.30
2023-04-02T08:44:45.614Z,8.10
2023-04-02T08:47:15.970Z,8.20
2023-04-02T08:50:01.744Z,8.40
2023-04-02T08:55:01.774Z,8.30
2023-04-02T08:57:47.487Z,10.50
2023-04-02T09:00:15.962Z,11.60
2023-04-02T09:02:52.540Z,13.80
2023-04-02T09:05:27.518Z,8.70
2023-04-02T09:07:59.602Z,8.40
2023-04-02T09:10:41.678Z,11.40
2023-04-02T09:13:21.663Z,7.40
2023-04-02T09:15:53.494Z,7.50
2023-04-02T09:18:21.949Z,15.10
2023-04-02T09:20:50.288Z,6.90
2023-04-02T09:23:22.250Z,10.20
2023-04-02T09:26:03.571Z,12.40
2023-04-02T09:28:32.826Z,5.90
2023-04-02T09:31:16.458Z,7.40
2023-04-02T09:33:47.397Z,10.50
2023-04-02T09:36:20.129Z,6.90
2023-04-02T09:39:00.412Z,7.00
2023-04-02T09:41:30.242Z,7.70
2023-04-02T09:44:25.402Z,5.80
2023-04-02T09:47:17.207Z,7.20
2023-04-02T09:49:45.256Z,8.20
2023-04-02T09:52:21.664Z,8.90
2023-04-02T09:55:15.537Z,6.70
2023-04-02T09:57:43.905Z,6.00
2023-04-02T10:00:30.717Z,5.40
2023-04-02T10:03:26.339Z,7.70
2023-04-02T10:06:08.085Z,4.80
2023-04-02T10:08:38.232Z,6.90
2023-04-02T10:11:12.463Z,8.00
2023-04-02T10:13:50.521Z,6.60
2023-04-02T10:16:28.104Z,8.20
2023-04-02T10:18:59.033Z,6.00
2023-04-02T10:21:31.359Z,7.70
2023-04-02T10:24:03.176Z,7.70
2023-04-02T10:26:43.618Z,8.70
2023-04-02T10:29:53.206Z,6.70
2023-04-02T10:32:30.582Z,7.80
2023-04-02T10:35:06.064Z,8.50
2023-04-02T10:37:44.589Z,6.80
2023-04-02T10:40:27.602Z,7.20
2023-04-02T10:43:23.742Z,5.30
2023-04-02T10:46:18.177Z,6.90
2023-04-02T10:48:56.721Z,5.60
2023-04-02T10:51:46.467Z,8.20
2023-04-02T10:54:21.602Z,7.20
2023-04-02T10:56:53.370Z,5.80
2023-04-02T10:59:32.029Z,6.50
2023-04-02T11:02:04.761Z,5.60
2023-04-02T11:04:38.767Z,4.30
2023-04-02T11:07:18.197Z,2.80
2023-04-02T11:09:52.304Z,5.60
2023-04-02T11:12:41.724Z,7.20
2023-04-02T11:15:19.190Z,5.40
2023-04-02T11:17:48.302Z,7.10
2023-04-02T11:21:04.729Z,5.50
2023-04-02T11:23:53.361Z,7.90
2023-04-02T11:26:38.935Z,5.20
2023-04-02T11:29:23.403Z,5.50
2023-04-02T11:32:15.807Z,6.20
2023-04-02T11:35:03.013Z,5.30
2023-04-02T11:37:38.415Z,5.70
2023-04-02T11:40:12.962Z,8.20
2023-04-02T11:42:49.388Z,9.20
2023-04-02T11:45:20.927Z,6.10
2023-04-02T11:48:01.741Z,4.30
2023-04-02T11:50:35.958Z,5.10
2023-04-02T11:53:16.378Z,4.30
2023-04-02T11:55:46.862Z,5.80
2023-04-02T11:58:24.028Z,6.30
2023-04-02T12:00:52.161Z,5.90
2023-04-02T12:03:29.893Z,5.60
2023-04-02T12:06:19.855Z,5.30
2023-04-02T12:09:09.918Z,6.00
2023-04-02T12:11:40.510Z,6.50
2023-04-02T12:14:47.594Z,5.70
2023-04-02T12:17:34.834Z,6.90
2023-04-02T12:20:20.615Z,4.80
2023-04-02T12:22:52.546Z,4.80
2023-04-02T12:25:29.447Z,6.60
2023-04-02T12:28:09.512Z,8.00
2023-04-02T12:30:38.900Z,9.00
2023-04-02T12:33:20.040Z,5.70
2023-04-02T12:35:51.300Z,5.80
2023-04-02T12:38:43.764Z,6.80
2023-04-02T12:41:24.487Z,6.10
2023-04-02T12:44:04.538Z,7.90
2023-04-02T12:46:35.724Z,4.50
2023-04-02T12:49:25.644Z,7.00
2023-04-02T12:51:55.000Z,6.50
2023-04-02T12:54:23.878Z,5.80
2023-04-02T12:56:52.119Z,5.10
2023-04-02T12:59:36.167Z,5.30
2023-04-02T13:02:19.504Z,5.00
2023-04-02T13:04:53.558Z,5.50
2023-04-02T13:07:27.164Z,5.90
2023-04-02T13:10:00.936Z,6.70
2023-04-02T13:12:35.512Z,6.10
2023-04-02T13:15:08.246Z,11.50
2023-04-02T13:17:37.430Z,14.90
2023-04-02T13:20:27.156Z,12.80
2023-04-02T13:22:55.964Z,8.20
2023-04-02T13:25:32.166Z,6.10
2023-04-02T13:28:00.369Z,4.00
2023-04-02T13:30:29.682Z,5.20
2023-04-02T13:32:57.629Z,6.50
2023-04-02T13:35:27.307Z,4.50
2023-04-02T13:37:55.234Z,6.50
2023-04-02T13:40:23.135Z,3.30
2023-04-02T13:42:51.478Z,5.30
2023-04-02T13:45:25.573Z,5.70
2023-04-02T13:47:55.098Z,7.10
2023-04-02T13:50:24.223Z,7.50
2023-04-02T13:52:53.536Z,7.40
2023-04-02T13:55:24.920Z,6.40
2023-04-02T13:57:53.021Z,8.40
2023-04-02T14:00:21.420Z,5.90
2023-04-02T14:02:55.516Z,7.00
2023-04-02T14:05:47.215Z,7.40
2023-04-02T14:08:33.309Z,7.00
2023-04-02T14:11:16.274Z,4.60
2023-04-02T14:13:53.327Z,5.50
2023-04-02T14:17:06.074Z,3.90
2023-04-02T14:20:05.435Z,5.00
2023-04-02T14:22:51.841Z,5.00
2023-04-02T14:25:54.315Z,4.20
2023-04-02T14:28:42.830Z,5.70
2023-04-02T14:31:16.510Z,5.90
2023-04-02T14:33:51.424Z,3.40
2023-04-02T14:36:24.265Z,3.60
2023-04-02T14:39:04.414Z,4.10
2023-04-02T14:41:58.203Z,2.60
2023-04-02T14:44:31.660Z,3.50
2023-04-02T14:47:13.707Z,3.10
2023-04-02T14:49:46.204Z,3.40
2023-04-02T14:52:19.336Z,5.30
2023-04-02T14:54:55.690Z,5.80
2023-04-02T14:57:35.536Z,8.50
2023-04-02T15:00:22.797Z,7.50
2023-04-02T15:02:57.072Z,8.20
2023-04-02T15:05:43.562Z,7.30
2023-04-02T15:08:48.333Z,5.20
2023-04-02T15:11:26.650Z,16.50
2023-04-02T15:14:06.294Z,12.00
2023-04-02T15:16:36.571Z,16.40
2023-04-02T15:19:12.233Z,9.40
2023-04-02T15:22:31.631Z,6.90
2023-04-02T15:25:23.336Z,4.80
2023-04-02T15:28:26.888Z,3.60
2023-04-02T15:30:58.997Z,7.40
2023-04-02T15:33:36.089Z,5.30
2023-04-02T15:36:36.454Z,3.90
2023-04-02T15:39:17.919Z,4.90
2023-04-02T15:42:05.075Z,5.40
2023-04-02T15:44:34.690Z,7.30
2023-04-02T15:47:24.781Z,4.10
2023-04-02T15:50:21.978Z,4.80
2023-04-02T15:53:09.621Z,8.90
2023-04-02T15:55:48.833Z,9.70
2023-04-02T15:59:03.698Z,5.30
2023-04-02T16:01:38.474Z,7.30
2023-04-02T16:04:44.364Z,5.50
2023-04-02T16:07:30.808Z,6.60
2023-04-02T16:10:41.875Z,4.00
2023-04-02T16:13:29.416Z,5.40
2023-04-02T16:16:05.289Z,3.60
2023-04-02T16:18:44.971Z,4.70
2023-04-02T16:21:20.679Z,4.90
2023-04-02T16:26:39.711Z,3.00
2023-04-02T16:29:47.527Z,3.00
2023-04-02T16:32:37.659Z,2.50
2023-04-02T16:35:44.365Z,3.00
2023-04-02T16:38:30.632Z,3.20
2023-04-02T16:41:32.850Z,6.20
2023-04-02T16:44:25.920Z,3.90
2023-04-02T16:47:20.480Z,5.20
2023-04-02T16:50:22.773Z,3.90
2023-04-02T16:52:56.282Z,4.80
2023-04-02T16:55:52.276Z,4.30
2023-04-02T16:58:26.569Z,3.70
2023-04-02T17:01:06.791Z,4.30
2023-04-02T17:03:52.343Z,5.40
2023-04-02T17:06:43.967Z,5.30
2023-04-02T17:09:17.124Z,4.90
2023-04-02T17:12:11.717Z,2.90
2023-04-02T17:14:52.329Z,4.20
2023-04-02T17:17:21.485Z,3.50
2023-04-02T17:19:56.584Z,3.90
2023-04-02T17:22:24.472Z,5.40
2023-04-02T17:24:57.851Z,5.60
2023-04-02T17:27:31.323Z,6.10
2023-04-02T17:30:06.362Z,5.20
2023-04-02T17:32:34.588Z,4.50
2023-04-02T17:35:32.288Z,3.70
2023-04-02T17:38:02.636Z,4.40
2023-04-02T17:40:42.596Z,3.30
2023-04-02T17:43:33.236Z,6.50
2023-04-02T17:46:13.376Z,7.10
2023-04-02T17:48:50.543Z,5.70
2023-04-02T17:51:39.818Z,7.50
2023-04-02T17:54:37.267Z,4.70
2023-04-02T17:57:26.397Z,4.80
2023-04-02T18:00:10.460Z,4.10
2023-04-02T18:02:42.108Z,7.10
2023-04-02T18:05:29.543Z,4.90
2023-04-02T18:08:22.671Z,5.00
2023-04-02T18:11:12.794Z,6.80
2023-04-02T18:14:00.902Z,8.60
2023-04-02T18:17:01.102Z,5.50
2023-04-02T18:19:48.429Z,6.50
2023-04-02T18:22:29.388Z,5.50
2023-04-02T18:25:24.756Z,6.00
2023-04-02T18:30:39.415Z,6.90
2023-04-02T18:33:20.355Z,9.40
2023-04-02T18:36:22.482Z,5.60
2023-04-02T18:39:08.612Z,7.20
2023-04-02T18:41:46.230Z,8.10
2023-04-02T18:44:29.550Z,10.10
2023-04-02T18:47:26.986Z,9.80
2023-04-02T18:50:16.745Z,8.50
2023-04-02T18:52:46.085Z,9.70
2023-04-02T18:55:21.865Z,7.90
2023-04-02T18:57:55.553Z,9.70
2023-04-02T19:00:38.279Z,8.60
2023-04-02T19:03:20.931Z,5.90
2023-04-02T19:05:55.715Z,8.90
2023-04-02T19:08:48.521Z,7.10
2023-04-02T19:11:22.217Z,7.90
2023-04-02T19:13:51.463Z,11.10
2023-04-02T19:16:34.854Z,9.00
2023-04-02T19:19:19.298Z,8.10
2023-04-02T19:22:11.128Z,9.60
2023-04-02T19:25:07.971Z,11.90
2023-04-02T19:28:07.943Z,11.10
2023-04-02T19:31:13.984Z,8.00
2023-04-02T19:33:52.456Z,5.20
2023-04-02T19:36:54.947Z,8.00
2023-04-02T19:39:47.921Z,5.80
2023-04-02T19:42:36.342Z,9.40
2023-04-02T19:45:06.207Z,7.90
2023-04-02T19:47:34.193Z,9.50
2023-04-02T19:50:02.320Z,6.30
2023-04-02T19:52:30.924Z,6.50
2023-04-02T19:54:58.900Z,8.60
2023-04-02T19:57:28.444Z,6.70
2023-04-02T19:59:56.542Z,8.80
2023-04-02T20:02:24.537Z,8.60
2023-04-02T20:04:52.625Z,6.70
2023-04-02T20:07:20.461Z,5.40
2023-04-02T20:09:48.413Z,7.90
2023-04-02T20:12:16.250Z,6.30
2023-04-02T20:14:44.129Z,6.20
2023-04-02T20:17:14.533Z,10.10
2023-04-02T20:19:43.995Z,9.10
2023-04-02T20:22:11.784Z,7.40
2023-04-02T20:24:41.133Z,8.10
2023-04-02T20:27:09.163Z,4.70
2023-04-02T20:29:37.119Z,8.20
2023-04-02T20:32:05.147Z,9.80
2023-04-02T20:34:33.153Z,8.30
2023-04-02T20:37:01.424Z,8.80
2023-04-02T20:39:29.566Z,8.90
2023-04-02T20:42:01.371Z,7.60
2023-04-02T20:44:29.387Z,7.20
2023-04-02T20:46:57.685Z,9.80
2023-04-02T20:49:25.671Z,13.30
2023-04-02T20:51:53.593Z,12.80
2023-04-02T20:54:21.642Z,10.80
2023-04-02T20:56:50.438Z,9.70
2023-04-02T20:59:18.650Z,9.30
2023-04-02T21:01:46.577Z,10.50
2023-04-02T21:04:14.772Z,8.90
2023-04-02T21:06:42.627Z,8.20
2023-04-02T21:09:18.245Z,6.60
2023-04-02T21:11:46.476Z,6.50
2023-04-02T21:14:14.458Z,8.60
2023-04-02T21:16:42.454Z,12.30
2023-04-02T21:19:11.035Z,15.60
2023-04-02T21:21:40.581Z,10.00
2023-04-02T21:24:09.449Z,10.90
2023-04-02T21:26:40.590Z,11.40
2023-04-02T21:29:09.145Z,9.40
2023-04-02T21:31:39.051Z,12.30
2023-04-02T21:34:09.320Z,7.80
2023-04-02T21:36:41.249Z,9.80
2023-04-02T21:39:12.970Z,8.90
2023-04-02T21:41:43.313Z,11.00
2023-04-02T21:44:15.451Z,9.30
2023-04-02T21:46:44.255Z,9.50
2023-04-02T21:49:15.841Z,9.30
2023-04-02T21:51:46.423Z,10.50
2023-04-02T21:54:14.761Z,9.50
2023-04-02T21:56:45.777Z,9.60
2023-04-02T21:59:16.189Z,9.30
2023-04-02T22:01:49.604Z,10.00
2023-04-02T22:04:23.970Z,7.10
2023-04-02T22:06:52.710Z,8.50
2023-04-02T22:09:26.645Z,10.50
2023-04-02T22:12:01.839Z,7.50
2023-04-02T22:14:29.995Z,12.60
2023-04-02T22:17:00.806Z,8.00
2023-04-02T22:19:28.956Z,6.10
2023-04-02T22:21:57.056Z,10.10
2023-04-02T22:24:25.424Z,9.10
2023-04-02T22:26:53.548Z,10.90
2023-04-02T22:29:21.599Z,10.60
2023-04-02T22:31:49.513Z,9.90
2023-04-02T22:34:17.598Z,7.60
2023-04-02T22:36:45.609Z,10.90
2023-04-02T22:39:13.508Z,8.00
2023-04-02T22:41:41.422Z,12.70
2023-04-02T22:44:14.308Z,10.70
2023-04-02T22:46:42.517Z,9.60
2023-04-02T22:49:11.724Z,7.90
2023-04-02T22:51:39.799Z,9.40
2023-04-02T22:54:07.832Z,9.70
2023-04-02T22:56:37.687Z,13.20
2023-04-02T22:59:06.018Z,8.60
2023-04-02T23:01:36.082Z,7.10
2023-04-02T23:04:05.426Z,11.10
2023-04-02T23:06:33.911Z,6.60
2023-04-02T23:09:01.797Z,10.80
2023-04-02T23:11:29.812Z,8.50
2023-04-02T23:13:58.794Z,8.80
2023-04-02T23:16:29.035Z,11.10
2023-04-02T23:18:57.680Z,9.00
2023-04-02T23:21:26.367Z,9.70
2023-04-02T23:23:55.119Z,8.10
2023-04-02T23:26:27.541Z,6.90
2023-04-02T23:28:55.372Z,8.90
2023-04-02T23:31:24.228Z,7.50
2023-04-02T23:33:53.338Z,9.20
2023-04-02T23:36:27.279Z,8.60
2023-04-02T23:38:58.004Z,10.40
2023-04-02T23:41:27.179Z,8.40
2023-04-02T23:43:56.342Z,7.90
2023-04-02T23:46:25.013Z,7.80
2023-04-02T23:48:53.710Z,10.00
2023-04-02T23:51:22.462Z,6.30
2023-04-02T23:53:51.853Z,9.80
2023-04-02T23:56:20.975Z,7.70
2023-04-02T23:58:50.349Z,6.10
